createdAt,value
2018-01-30T00:01:42.749Z,5.03
2018-01-30T00:04:11.197Z,5.10
2018-01-30T00:06:39.636Z,5.87
2018-01-30T00:09:08.052Z,5.13
2018-01-30T00:11:36.506Z,5.40
2018-01-30T00:14:04.926Z,5.57
2018-01-30T00:16:33.357Z,5.03
2018-01-30T00:19:01.761Z,5.40
2018-01-30T00:21:30.153Z,5.60
2018-01-30T00:23:58.632Z,5.47
2018-01-30T00:26:27.092Z,6.53
2018-01-30T00:28:55.544Z,5.60
2018-01-30T00:31:23.987Z,5.27
2018-01-30T00:33:52.448Z,5.50
2018-01-30T00:36:20.848Z,5.77
2018-01-30T00:38:49.260Z,5.50
2018-01-30T00:41:17.740Z,5.33
2018-01-30T00:43:46.168Z,4.43
2018-01-30T00:46:14.623Z,4.87
2018-01-30T00:48:43.045Z,4.90
2018-01-30T00:51:11.491Z,5.07
2018-01-30T00:53:40.028Z,5.17
2018-01-30T00:56:08.521Z,5.20
2018-01-30T00:58:36.964Z,4.80
2018-01-30T01:01:05.368Z,4.57
2018-01-30T01:03:33.863Z,5.03
2018-01-30T01:06:02.337Z,4.43
2018-01-30T01:08:30.762Z,3.70
2018-01-30T01:10:59.180Z,3.97
2018-01-30T01:13:27.669Z,4.23
2018-01-30T01:15:56.151Z,4.37
2018-01-30T01:18:24.593Z,4.00
2018-01-30T01:20:52.971Z,4.13
2018-01-30T01:23:21.453Z,4.23
2018-01-30T01:25:49.881Z,4.23
2018-01-30T01:28:18.280Z,5.67
2018-01-30T01:30:46.716Z,3.40
2018-01-30T01:33:15.157Z,3.53
2018-01-30T01:35:43.520Z,4.43
2018-01-30T01:38:11.900Z,3.73
2018-01-30T01:40:40.357Z,3.77
2018-01-30T01:43:08.839Z,3.83
2018-01-30T01:45:37.314Z,3.50
2018-01-30T01:48:05.721Z,3.10
2018-01-30T01:50:34.216Z,3.30
2018-01-30T01:53:02.709Z,3.27
2018-01-30T01:55:31.078Z,4.40
2018-01-30T01:57:59.510Z,3.20
2018-01-30T02:00:27.971Z,3.93
2018-01-30T02:02:56.341Z,3.20
2018-01-30T02:05:24.809Z,3.33
2018-01-30T02:07:53.256Z,3.27
2018-01-30T02:10:21.653Z,3.57
2018-01-30T02:12:50.109Z,3.37
2018-01-30T02:15:18.601Z,3.20
2018-01-30T02:17:47.040Z,3.37
2018-01-30T02:20:15.421Z,2.43
2018-01-30T02:22:43.908Z,2.43
2018-01-30T02:25:12.293Z,2.70
2018-01-30T02:27:40.714Z,2.57
2018-01-30T02:30:09.145Z,2.73
2018-01-30T02:32:37.533Z,2.70
2018-01-30T02:35:06.037Z,2.67
2018-01-30T02:37:34.484Z,3.03
2018-01-30T02:40:02.869Z,2.90
2018-01-30T02:42:31.324Z,2.90
2018-01-30T02:44:59.737Z,3.00
2018-01-30T02:47:28.150Z,3.40
2018-01-30T02:49:56.581Z,3.13
2018-01-30T02:52:25.016Z,3.13
2018-01-30T02:54:53.519Z,3.17
2018-01-30T02:57:21.961Z,3.30
2018-01-30T02:59:50.445Z,3.00
2018-01-30T03:02:18.828Z,3.37
2018-01-30T03:04:47.265Z,3.53
2018-01-30T03:07:15.675Z,3.10
2018-01-30T03:09:44.105Z,3.47
2018-01-30T03:12:12.592Z,4.23
2018-01-30T03:14:40.979Z,3.20
2018-01-30T03:17:09.410Z,4.87
2018-01-30T03:19:37.852Z,4.63
2018-01-30T03:22:06.338Z,3.30
2018-01-30T03:24:34.846Z,4.50
2018-01-30T03:27:03.307Z,4.50
2018-01-30T03:29:31.708Z,3.60
2018-01-30T03:32:00.201Z,5.67
2018-01-30T03:34:28.649Z,3.53
2018-01-30T03:36:57.069Z,3.47
2018-01-30T03:39:25.510Z,4.13
2018-01-30T03:41:53.928Z,3.63
2018-01-30T03:44:22.419Z,3.97
2018-01-30T03:46:50.920Z,4.13
2018-01-30T03:49:19.361Z,4.57
2018-01-30T03:51:47.757Z,5.53
2018-01-30T03:54:16.156Z,4.30
2018-01-30T03:56:45.269Z,4.20
2018-01-30T03:59:13.723Z,4.27
2018-01-30T04:01:42.187Z,9.30
2018-01-30T04:04:10.610Z,13.07
2018-01-30T04:06:39.026Z,12.77
2018-01-30T04:09:07.438Z,11.63
2018-01-30T04:11:35.881Z,10.87
2018-01-30T04:14:04.264Z,10.03
2018-01-30T04:16:32.696Z,12.10
2018-01-30T04:19:01.098Z,13.30
2018-01-30T04:21:29.544Z,10.10
2018-01-30T04:23:57.997Z,14.13
2018-01-30T04:26:26.447Z,12.83
2018-01-30T04:28:54.896Z,10.07
2018-01-30T04:31:23.313Z,10.37
2018-01-30T04:33:51.696Z,8.87
2018-01-30T04:36:20.102Z,8.43
2018-01-30T04:38:48.572Z,7.03
2018-01-30T04:41:16.949Z,7.10
2018-01-30T04:43:45.389Z,7.70
2018-01-30T04:46:13.800Z,6.20
2018-01-30T04:48:42.257Z,8.33
2018-01-30T04:51:10.696Z,7.20
2018-01-30T04:53:39.080Z,9.00
2018-01-30T04:56:07.573Z,7.37
2018-01-30T04:58:35.947Z,7.73
2018-01-30T05:01:04.357Z,9.03
2018-01-30T05:03:32.857Z,11.57
2018-01-30T05:06:01.254Z,12.43
2018-01-30T05:08:29.656Z,14.53
2018-01-30T05:10:58.104Z,12.77
2018-01-30T05:13:26.500Z,17.20
2018-01-30T05:15:55.015Z,18.70
2018-01-30T05:18:23.478Z,25.70
2018-01-30T05:20:51.966Z,19.13
2018-01-30T05:23:20.433Z,14.17
2018-01-30T05:25:48.909Z,14.07
2018-01-30T05:28:17.378Z,15.97
2018-01-30T05:30:45.964Z,17.67
2018-01-30T05:33:14.374Z,16.20
2018-01-30T05:35:42.785Z,18.00
2018-01-30T05:38:11.225Z,16.13
2018-01-30T05:40:40.609Z,22.43
2018-01-30T05:43:09.021Z,20.13
2018-01-30T05:45:37.460Z,21.60
2018-01-30T05:48:05.949Z,20.57
2018-01-30T05:50:34.405Z,22.60
2018-01-30T05:53:02.805Z,19.57
2018-01-30T05:55:31.216Z,26.07
2018-01-30T05:57:59.640Z,26.73
2018-01-30T06:00:28.045Z,23.13
2018-01-30T06:02:56.557Z,25.20
2018-01-30T06:05:24.969Z,22.83
2018-01-30T06:07:53.410Z,26.23
2018-01-30T06:10:21.823Z,37.43
2018-01-30T06:12:50.276Z,28.60
2018-01-30T06:15:18.677Z,25.63
2018-01-30T06:17:47.069Z,20.67
2018-01-30T06:20:15.545Z,21.13
2018-01-30T06:22:44.014Z,25.60
2018-01-30T06:25:12.459Z,22.53
2018-01-30T06:27:40.917Z,30.17
2018-01-30T06:30:09.428Z,28.80
2018-01-30T06:32:37.858Z,28.07
2018-01-30T06:35:06.329Z,25.77
2018-01-30T06:37:34.764Z,25.90
2018-01-30T06:40:03.222Z,23.20
2018-01-30T06:42:31.627Z,25.73
2018-01-30T06:45:00.125Z,28.50
2018-01-30T06:47:28.556Z,21.67
2018-01-30T06:49:57.005Z,19.23
2018-01-30T06:52:25.464Z,21.67
2018-01-30T06:54:53.896Z,22.80
2018-01-30T06:57:22.332Z,31.73
2018-01-30T06:59:50.780Z,24.10
2018-01-30T07:02:19.225Z,22.13
2018-01-30T07:04:48.027Z,26.77
2018-01-30T07:07:16.513Z,26.07
2018-01-30T07:09:45.015Z,28.87
2018-01-30T07:12:13.569Z,25.13
2018-01-30T07:14:42.089Z,21.40
2018-01-30T07:17:10.467Z,15.57
2018-01-30T07:19:38.893Z,17.53
2018-01-30T07:22:07.385Z,35.60
2018-01-30T07:24:35.780Z,19.50
2018-01-30T07:27:04.207Z,30.07
2018-01-30T07:29:32.658Z,25.97
2018-01-30T07:32:01.108Z,22.30
2018-01-30T07:34:29.601Z,15.47
2018-01-30T07:36:57.997Z,14.50
2018-01-30T07:39:26.420Z,16.53
2018-01-30T07:41:54.834Z,18.17
2018-01-30T07:44:23.295Z,16.47
2018-01-30T07:46:51.739Z,15.47
2018-01-30T07:49:20.147Z,17.63
2018-01-30T07:51:48.677Z,16.93
2018-01-30T07:54:17.086Z,16.57
2018-01-30T07:56:45.529Z,16.83
2018-01-30T07:59:13.941Z,17.27
2018-01-30T08:01:42.376Z,16.73
2018-01-30T08:04:10.777Z,18.90
2018-01-30T08:06:39.212Z,18.70
2018-01-30T08:09:07.670Z,18.03
2018-01-30T08:11:36.113Z,17.20
2018-01-30T08:14:04.564Z,16.83
2018-01-30T08:16:32.997Z,15.90
2018-01-30T08:19:01.397Z,16.10
2018-01-30T08:21:29.843Z,17.90
2018-01-30T08:23:58.283Z,17.33
2018-01-30T08:26:26.793Z,24.30
2018-01-30T08:28:55.742Z,24.73
2018-01-30T08:31:24.393Z,16.27
2018-01-30T08:33:54.618Z,19.10
2018-01-30T08:36:25.971Z,18.13
2018-01-30T08:38:56.688Z,18.23
2018-01-30T08:41:25.884Z,18.80
2018-01-30T08:43:54.316Z,22.50
2018-01-30T08:46:22.949Z,19.07
2018-01-30T08:48:51.422Z,24.27
2018-01-30T08:51:19.897Z,15.80
2018-01-30T08:53:48.291Z,15.90
2018-01-30T08:56:16.712Z,20.23
2018-01-30T08:58:45.201Z,15.47
2018-01-30T09:01:13.641Z,21.30
2018-01-30T09:03:42.041Z,17.43
2018-01-30T09:06:10.485Z,18.60
2018-01-30T09:08:38.933Z,19.77
2018-01-30T09:11:07.331Z,17.57
2018-01-30T09:13:35.843Z,22.50
2018-01-30T09:16:04.269Z,20.40
2018-01-30T09:18:32.723Z,16.90
2018-01-30T09:21:01.205Z,21.73
2018-01-30T09:23:29.711Z,21.00
2018-01-30T09:25:58.148Z,21.40
2018-01-30T09:28:26.570Z,19.50
2018-01-30T09:30:54.996Z,21.77
2018-01-30T09:33:23.480Z,17.00
2018-01-30T09:35:51.982Z,20.90
2018-01-30T09:38:20.392Z,22.10
2018-01-30T09:40:48.853Z,17.87
2018-01-30T09:43:17.381Z,20.57
2018-01-30T09:45:45.769Z,20.30
2018-01-30T09:48:14.172Z,22.20
2018-01-30T09:50:42.677Z,21.13
2018-01-30T09:53:11.108Z,20.57
2018-01-30T09:55:39.601Z,21.27
2018-01-30T09:58:08.069Z,24.03
2018-01-30T10:00:36.517Z,21.97
2018-01-30T10:03:04.943Z,19.73
2018-01-30T10:05:33.348Z,20.67
2018-01-30T10:08:01.821Z,19.90
2018-01-30T10:10:30.265Z,35.73
2018-01-30T10:12:58.706Z,21.67
2018-01-30T10:15:27.109Z,19.20
2018-01-30T10:17:55.717Z,20.23
2018-01-30T10:20:24.785Z,26.97
2018-01-30T10:22:53.248Z,20.07
2018-01-30T10:25:21.764Z,18.77
2018-01-30T10:27:50.257Z,20.43
2018-01-30T10:30:18.721Z,19.53
2018-01-30T10:32:47.217Z,22.70
2018-01-30T10:35:15.623Z,17.97
2018-01-30T10:37:44.092Z,19.13
2018-01-30T10:40:12.508Z,20.47
2018-01-30T10:42:40.900Z,10.07
2018-01-30T10:45:09.334Z,10.10
2018-01-30T10:47:37.754Z,14.43
2018-01-30T10:50:06.211Z,9.43
2018-01-30T10:52:34.677Z,13.23
2018-01-30T10:55:03.121Z,10.27
2018-01-30T10:57:31.548Z,5.43
2018-01-30T11:00:00.113Z,6.53
2018-01-30T11:02:28.621Z,3.10
2018-01-30T11:04:57.037Z,14.87
2018-01-30T11:07:25.559Z,12.77
2018-01-30T11:09:54.061Z,11.87
2018-01-30T11:12:22.445Z,12.17
2018-01-30T11:14:50.828Z,5.20
2018-01-30T11:17:19.328Z,2.93
2018-01-30T11:19:47.789Z,6.07
2018-01-30T11:22:16.246Z,6.23
2018-01-30T11:24:44.702Z,3.83
2018-01-30T11:27:13.093Z,12.40
2018-01-30T11:29:41.537Z,11.90
2018-01-30T11:32:09.925Z,4.60
2018-01-30T11:34:38.409Z,11.83
2018-01-30T11:37:06.845Z,11.50
2018-01-30T11:39:35.350Z,12.70
2018-01-30T11:42:03.740Z,11.47
2018-01-30T11:44:32.265Z,12.70
2018-01-30T11:47:00.700Z,11.00
2018-01-30T11:49:29.168Z,10.77
2018-01-30T11:51:57.618Z,36.40
2018-01-30T11:54:26.048Z,27.37
2018-01-30T11:56:54.493Z,11.17
2018-01-30T11:59:22.933Z,21.83
2018-01-30T12:01:51.385Z,6.00
2018-01-30T12:04:19.827Z,9.03
2018-01-30T12:06:48.239Z,8.90
2018-01-30T12:09:16.737Z,10.13
2018-01-30T12:11:45.167Z,13.40
2018-01-30T12:14:13.605Z,9.43
2018-01-30T12:16:42.049Z,19.70
2018-01-30T12:19:10.468Z,6.10
2018-01-30T12:21:38.953Z,5.47
2018-01-30T12:24:07.388Z,5.10
2018-01-30T12:26:35.849Z,4.63
2018-01-30T12:29:04.328Z,5.63
2018-01-30T12:31:32.726Z,20.13
2018-01-30T12:34:01.248Z,25.00
2018-01-30T12:36:29.734Z,16.00
2018-01-30T12:38:58.133Z,8.80
2018-01-30T12:41:26.625Z,16.10
2018-01-30T12:43:55.131Z,58.40
2018-01-30T12:46:23.539Z,6.60
2018-01-30T12:48:51.976Z,14.27
2018-01-30T12:51:20.421Z,12.83
2018-01-30T12:53:48.986Z,4.37
2018-01-30T12:56:17.470Z,9.00
2018-01-30T12:58:45.860Z,7.37
2018-01-30T13:01:14.326Z,9.53
2018-01-30T13:03:42.773Z,12.57
2018-01-30T13:06:11.228Z,9.50
2018-01-30T13:08:39.648Z,12.23
2018-01-30T13:11:08.097Z,18.47
2018-01-30T13:13:36.498Z,10.20
2018-01-30T13:16:04.886Z,13.97
2018-01-30T13:18:33.344Z,12.43
2018-01-30T13:21:01.783Z,10.83
2018-01-30T13:23:30.224Z,7.77
2018-01-30T13:25:58.650Z,6.30
2018-01-30T13:28:27.068Z,7.80
2018-01-30T13:30:55.452Z,6.27
2018-01-30T13:33:24.016Z,5.10
2018-01-30T13:35:52.421Z,11.70
2018-01-30T13:38:20.954Z,5.00
2018-01-30T13:40:49.343Z,5.00
2018-01-30T13:43:17.743Z,7.10
2018-01-30T13:45:46.187Z,4.67
2018-01-30T13:48:14.610Z,15.43
2018-01-30T13:50:43.061Z,27.00
2018-01-30T13:53:11.521Z,14.60
2018-01-30T13:55:39.990Z,7.70
2018-01-30T13:58:08.428Z,5.30
2018-01-30T14:00:36.879Z,6.70
2018-01-30T14:03:05.386Z,12.03
2018-01-30T14:05:33.816Z,4.30
2018-01-30T14:08:02.262Z,11.67
2018-01-30T14:10:30.658Z,5.77
2018-01-30T14:12:59.155Z,9.10
2018-01-30T14:15:27.565Z,10.07
2018-01-30T14:17:56.053Z,12.97
2018-01-30T14:20:24.499Z,9.00
2018-01-30T14:22:52.937Z,6.53
2018-01-30T14:25:21.388Z,10.10
2018-01-30T14:27:49.830Z,6.47
2018-01-30T14:30:18.217Z,8.67
2018-01-30T14:32:46.700Z,7.30
2018-01-30T14:35:15.137Z,14.33
2018-01-30T14:37:43.533Z,10.60
2018-01-30T14:40:11.968Z,9.53
2018-01-30T14:42:40.355Z,9.30
2018-01-30T14:45:08.749Z,10.33
2018-01-30T14:47:37.189Z,15.73
2018-01-30T14:50:05.618Z,6.97
2018-01-30T14:52:34.081Z,14.83
2018-01-30T14:55:02.560Z,16.70
2018-01-30T14:57:31.093Z,14.13
2018-01-30T14:59:59.595Z,14.80
2018-01-30T15:02:28.105Z,13.20
2018-01-30T15:04:56.561Z,11.93
2018-01-30T15:07:25.049Z,16.30
2018-01-30T15:09:53.506Z,23.67
2018-01-30T15:12:22.001Z,15.67
2018-01-30T15:14:50.490Z,8.77
2018-01-30T15:17:18.946Z,10.00
2018-01-30T15:19:47.457Z,6.73
2018-01-30T15:22:15.909Z,33.07
2018-01-30T15:24:44.413Z,12.53
2018-01-30T15:27:12.909Z,11.43
2018-01-30T15:29:41.409Z,21.73
2018-01-30T15:32:09.932Z,8.20
2018-01-30T15:34:38.447Z,11.00
2018-01-30T15:37:06.968Z,10.13
2018-01-30T15:39:35.486Z,18.10
2018-01-30T15:42:03.992Z,14.27
2018-01-30T15:44:32.490Z,15.77
2018-01-30T15:47:00.946Z,12.37
2018-01-30T15:49:29.447Z,12.77
2018-01-30T15:51:57.909Z,13.27
2018-01-30T15:54:26.425Z,8.83
2018-01-30T15:56:54.892Z,8.63
2018-01-30T15:59:23.398Z,11.77
2018-01-30T16:01:51.864Z,13.60
2018-01-30T16:04:20.363Z,14.83
2018-01-30T16:06:48.857Z,12.17
2018-01-30T16:09:17.334Z,10.07
2018-01-30T16:11:45.817Z,13.50
2018-01-30T16:14:14.272Z,8.83
2018-01-30T16:16:42.788Z,12.20
2018-01-30T16:19:11.258Z,12.20
2018-01-30T16:21:39.782Z,13.27
2018-01-30T16:24:08.325Z,10.40
2018-01-30T16:26:36.842Z,9.67
2018-01-30T16:29:05.337Z,9.87
2018-01-30T16:31:33.854Z,12.30
2018-01-30T16:34:02.412Z,12.93
2018-01-30T16:36:30.874Z,12.23
2018-01-30T16:38:59.389Z,10.77
2018-01-30T16:41:27.879Z,10.50
2018-01-30T16:43:56.382Z,9.57
2018-01-30T16:46:24.849Z,11.83
2018-01-30T16:48:53.400Z,10.17
2018-01-30T16:51:21.856Z,12.23
2018-01-30T16:53:50.357Z,12.80
2018-01-30T16:56:18.862Z,11.27
2018-01-30T16:58:47.382Z,12.13
2018-01-30T17:01:15.964Z,10.83
2018-01-30T17:03:44.517Z,12.83
2018-01-30T17:06:13.059Z,10.60
2018-01-30T17:08:41.530Z,10.30
2018-01-30T17:11:10.078Z,10.17
2018-01-30T17:13:38.560Z,19.20
2018-01-30T17:16:07.035Z,9.70
2018-01-30T17:18:35.489Z,9.43
2018-01-30T17:21:03.969Z,11.07
2018-01-30T17:23:32.461Z,9.83
2018-01-30T17:26:00.936Z,11.30
2018-01-30T17:28:29.421Z,11.57
2018-01-30T17:30:57.925Z,9.43
2018-01-30T17:33:26.380Z,10.03
2018-01-30T17:35:54.877Z,10.73
2018-01-30T17:38:23.366Z,11.47
2018-01-30T17:40:51.846Z,9.63
2018-01-30T17:43:20.305Z,9.20
2018-01-30T17:45:48.816Z,10.10
2018-01-30T17:48:17.277Z,13.00
2018-01-30T17:50:45.768Z,9.90
2018-01-30T17:53:14.246Z,9.67
2018-01-30T17:55:42.683Z,10.23
2018-01-30T17:58:11.167Z,12.43
2018-01-30T18:00:39.664Z,9.00
2018-01-30T18:03:08.126Z,10.03
2018-01-30T18:05:36.638Z,8.70
2018-01-30T18:08:05.142Z,11.90
2018-01-30T18:10:33.636Z,11.07
2018-01-30T18:13:02.066Z,10.67
2018-01-30T18:15:30.553Z,10.97
2018-01-30T18:17:59.001Z,9.67
2018-01-30T18:20:28.370Z,9.10
2018-01-30T18:22:56.820Z,9.07
2018-01-30T18:25:25.308Z,23.87
2018-01-30T18:27:53.754Z,11.77
2018-01-30T18:30:22.374Z,8.60
2018-01-30T18:32:50.845Z,8.63
2018-01-30T18:35:19.330Z,9.10
2018-01-30T18:37:47.778Z,9.60
2018-01-30T18:40:16.278Z,9.57
2018-01-30T18:42:44.801Z,8.47
2018-01-30T18:45:13.264Z,8.63
2018-01-30T18:47:41.743Z,9.63
2018-01-30T18:50:10.245Z,11.93
2018-01-30T18:52:38.714Z,13.70
2018-01-30T18:55:07.182Z,10.43
2018-01-30T18:57:35.678Z,9.67
2018-01-30T19:00:04.199Z,10.20
2018-01-30T19:02:32.669Z,9.93
2018-01-30T19:05:01.214Z,11.63
2018-01-30T19:07:29.659Z,11.80
2018-01-30T19:09:58.117Z,14.27
2018-01-30T19:12:26.630Z,12.27
2018-01-30T19:14:55.142Z,10.77
2018-01-30T19:17:23.656Z,11.67
2018-01-30T19:19:52.159Z,11.43
2018-01-30T19:22:20.658Z,12.40
2018-01-30T19:24:49.153Z,14.60
2018-01-30T19:27:17.621Z,12.27
2018-01-30T19:29:46.142Z,11.87
2018-01-30T19:32:14.645Z,12.10
2018-01-30T19:34:43.170Z,12.40
2018-01-30T19:37:11.683Z,12.40
2018-01-30T19:39:40.154Z,16.30
2018-01-30T19:42:08.754Z,11.03
2018-01-30T19:44:37.217Z,14.90
2018-01-30T19:47:05.689Z,12.97
2018-01-30T19:49:34.205Z,11.30
2018-01-30T19:52:02.678Z,11.50
2018-01-30T19:54:31.186Z,15.33
2018-01-30T19:56:59.660Z,11.90
2018-01-30T19:59:28.173Z,11.00
2018-01-30T20:01:56.687Z,10.07
2018-01-30T20:04:25.161Z,11.17
2018-01-30T20:06:53.662Z,10.87
2018-01-30T20:09:22.158Z,10.60
2018-01-30T20:11:50.615Z,10.70
2018-01-30T20:14:19.117Z,10.50
2018-01-30T20:16:47.586Z,10.57
2018-01-30T20:19:16.058Z,11.43
2018-01-30T20:21:44.560Z,10.67
2018-01-30T20:24:13.026Z,11.60
2018-01-30T20:26:45.443Z,10.40
2018-01-30T20:29:13.898Z,9.73
2018-01-30T20:31:43.205Z,9.83
2018-01-30T20:34:11.701Z,10.17
2018-01-30T20:36:40.141Z,8.97
2018-01-30T20:39:08.622Z,11.07
2018-01-30T20:41:37.112Z,9.80
2018-01-30T20:44:05.570Z,8.63
2018-01-30T20:46:34.092Z,9.53
2018-01-30T20:49:02.552Z,9.10
2018-01-30T20:51:31.076Z,9.27
2018-01-30T20:53:59.605Z,7.97
2018-01-30T20:56:28.058Z,8.80
2018-01-30T20:58:56.553Z,8.50
2018-01-30T21:01:25.005Z,8.87
2018-01-30T21:03:53.510Z,8.77
2018-01-30T21:06:21.953Z,9.13
2018-01-30T21:08:50.442Z,9.87
2018-01-30T21:11:18.939Z,9.00
2018-01-30T21:13:48.229Z,10.27
2018-01-30T21:16:16.738Z,9.17
2018-01-30T21:18:45.200Z,8.63
2018-01-30T21:21:13.703Z,9.00
2018-01-30T21:23:42.172Z,9.60
2018-01-30T21:26:10.631Z,9.33
2018-01-30T21:28:39.138Z,9.40
2018-01-30T21:31:07.601Z,10.57
2018-01-30T21:33:36.127Z,9.90
2018-01-30T21:36:04.587Z,9.63
2018-01-30T21:38:33.046Z,9.57
2018-01-30T21:41:01.546Z,9.00
2018-01-30T21:43:29.998Z,9.40
2018-01-30T21:45:58.489Z,9.17
2018-01-30T21:48:26.946Z,9.10
2018-01-30T21:50:55.453Z,7.43
2018-01-30T21:53:23.910Z,7.93
2018-01-30T21:55:52.391Z,7.30
2018-01-30T21:58:20.913Z,7.87
2018-01-30T22:00:49.424Z,8.70
2018-01-30T22:03:17.931Z,7.50
2018-01-30T22:05:46.421Z,7.43
2018-01-30T22:08:14.934Z,7.00
2018-01-30T22:10:43.410Z,6.63
2018-01-30T22:13:11.940Z,6.47
2018-01-30T22:15:40.397Z,6.33
2018-01-30T22:18:08.960Z,6.27
2018-01-30T22:20:37.489Z,5.53
2018-01-30T22:23:05.956Z,6.57
2018-01-30T22:25:34.448Z,6.47
2018-01-30T22:28:02.949Z,5.97
2018-01-30T22:30:31.404Z,6.37
2018-01-30T22:32:59.912Z,6.53
2018-01-30T22:35:28.362Z,7.07
2018-01-30T22:37:56.865Z,7.23
2018-01-30T22:40:25.289Z,7.13
2018-01-30T22:42:53.855Z,7.13
2018-01-30T22:45:22.366Z,7.17
